sensor_id;sensor_type;location;lat;lon;timestamp;pressure;altitude;pressure_sealevel;temperature;humidity
73016;BME280;61893;50.074;14.440;2024-03-07T00:00:59;98996.38;;;3.73;81.71
73016;BME280;61893;50.074;14.440;2024-03-07T00:03:33;99000.03;;;3.70;82.06
73016;BME280;61893;50.074;14.440;2024-03-07T00:06:02;98997.41;;;3.70;81.97
73016;BME280;61893;50.074;14.440;2024-03-07T00:08:31;98998.03;;;3.74;82.24
73016;BME280;61893;50.074;14.440;2024-03-07T00:11:12;99000.66;;;3.74;82.21
73016;BME280;61893;50.074;14.440;2024-03-07T00:13:43;98998.50;;;3.66;82.86
73016;BME280;61893;50.074;14.440;2024-03-07T00:16:12;99001.91;;;3.68;82.40
73016;BME280;61893;50.074;14.440;2024-03-07T00:19:23;99001.16;;;3.66;83.12
73016;BME280;61893;50.074;14.440;2024-03-07T00:22:11;98996.66;;;3.68;83.38
73016;BME280;61893;50.074;14.440;2024-03-07T00:25:04;98998.19;;;3.58;84.40
73016;BME280;61893;50.074;14.440;2024-03-07T00:28:02;98997.69;;;3.66;83.68
73016;BME280;61893;50.074;14.440;2024-03-07T00:30:57;98989.91;;;3.64;83.82
73016;BME280;61893;50.074;14.440;2024-03-07T00:33:57;98988.88;;;3.67;84.02
73016;BME280;61893;50.074;14.440;2024-03-07T00:37:13;98996.66;;;3.68;84.49
73016;BME280;61893;50.074;14.440;2024-03-07T00:39:47;98988.88;;;3.67;84.80
73016;BME280;61893;50.074;14.440;2024-03-07T00:44:52;98989.66;;;3.81;83.89
73016;BME280;61893;50.074;14.440;2024-03-07T00:47:18;98985.63;;;3.76;84.25
73016;BME280;61893;50.074;14.440;2024-03-07T00:49:45;98988.91;;;3.79;84.76
73016;BME280;61893;50.074;14.440;2024-03-07T00:52:34;98992.56;;;3.77;85.06
73016;BME280;61893;50.074;14.440;2024-03-07T00:55:10;98983.75;;;3.78;84.89
73016;BME280;61893;50.074;14.440;2024-03-07T00:58:12;98982.69;;;3.80;84.65
73016;BME280;61893;50.074;14.440;2024-03-07T01:00:55;98988.22;;;3.90;84.90
73016;BME280;61893;50.074;14.440;2024-03-07T01:03:48;98982.69;;;3.80;85.38
73016;BME280;61893;50.074;14.440;2024-03-07T01:06:44;98986.50;;;3.89;84.85
73016;BME280;61893;50.074;14.440;2024-03-07T01:09:11;98976.44;;;3.96;84.67
73016;BME280;61893;50.074;14.440;2024-03-07T01:11:44;98979.28;;;3.93;85.52
73016;BME280;61893;50.074;14.440;2024-03-07T01:14:35;98977.91;;;3.87;85.49
73016;BME280;61893;50.074;14.440;2024-03-07T01:17:02;98970.56;;;3.92;84.81
73016;BME280;61893;50.074;14.440;2024-03-07T01:19:34;98971.59;;;3.90;86.04
73016;BME280;61893;50.074;14.440;2024-03-07T01:22:00;98961.06;;;3.90;85.46
73016;BME280;61893;50.074;14.440;2024-03-07T01:24:32;98968.09;;;3.89;85.79
73016;BME280;61893;50.074;14.440;2024-03-07T01:27:00;98955.47;;;3.94;85.89
73016;BME280;61893;50.074;14.440;2024-03-07T01:29:26;98963.56;;;3.91;86.64
73016;BME280;61893;50.074;14.440;2024-03-07T01:31:55;98965.28;;;3.92;86.52
73016;BME280;61893;50.074;14.440;2024-03-07T01:34:28;98957.91;;;3.97;86.91
73016;BME280;61893;50.074;14.440;2024-03-07T01:37:47;98959.91;;;3.94;87.72
73016;BME280;61893;50.074;14.440;2024-03-07T01:40:36;98964.22;;;3.95;89.33
73016;BME280;61893;50.074;14.440;2024-03-07T01:43:33;98963.38;;;3.94;89.47
73016;BME280;61893;50.074;14.440;2024-03-07T01:46:29;98958.09;;;3.94;89.80
73016;BME280;61893;50.074;14.440;2024-03-07T01:49:16;98956.50;;;3.92;90.75
73016;BME280;61893;50.074;14.440;2024-03-07T01:52:26;98952.97;;;3.93;90.72
73016;BME280;61893;50.074;14.440;2024-03-07T01:55:29;98953.31;;;4.01;91.43
73016;BME280;61893;50.074;14.440;2024-03-07T01:58:20;98946.34;;;4.00;91.33
73016;BME280;61893;50.074;14.440;2024-03-07T02:01:28;98947.84;;;4.04;91.27
73016;BME280;61893;50.074;14.440;2024-03-07T02:04:14;98949.09;;;3.98;92.57
73016;BME280;61893;50.074;14.440;2024-03-07T02:07:05;98951.19;;;4.06;92.78
73016;BME280;61893;50.074;14.440;2024-03-07T02:10:02;98940.88;;;4.03;92.05
73016;BME280;61893;50.074;14.440;2024-03-07T02:12:30;98937.38;;;3.90;92.89
73016;BME280;61893;50.074;14.440;2024-03-07T02:15:18;98935.47;;;3.92;94.33
73016;BME280;61893;50.074;14.440;2024-03-07T02:17:56;98933.97;;;3.88;94.30
73016;BME280;61893;50.074;14.440;2024-03-07T02:20:23;98937.25;;;3.91;94.00
73016;BME280;61893;50.074;14.440;2024-03-07T02:22:57;98928.59;;;3.89;94.64
73016;BME280;61893;50.074;14.440;2024-03-07T02:25:23;98930.50;;;3.87;94.79
73016;BME280;61893;50.074;14.440;2024-03-07T02:27:49;98933.97;;;3.88;95.42
73016;BME280;61893;50.074;14.440;2024-03-07T02:30:36;98934.63;;;3.91;95.50
73016;BME280;61893;50.074;14.440;2024-03-07T02:33:03;98928.91;;;3.84;95.61
73016;BME280;61893;50.074;14.440;2024-03-07T02:35:34;98932.09;;;3.90;95.43
73016;BME280;61893;50.074;14.440;2024-03-07T02:39:05;98927.56;;;3.92;96.41
73016;BME280;61893;50.074;14.440;2024-03-07T02:41:49;98930.41;;;3.89;96.63
73016;BME280;61893;50.074;14.440;2024-03-07T02:44:38;98917.56;;;3.97;96.38
73016;BME280;61893;50.074;14.440;2024-03-07T02:47:05;98927.19;;;3.98;96.56
73016;BME280;61893;50.074;14.440;2024-03-07T02:49:49;98923.09;;;4.06;96.19
73016;BME280;61893;50.074;14.440;2024-03-07T02:52:14;98919.78;;;4.03;96.63
73016;BME280;61893;50.074;14.440;2024-03-07T02:55:00;98926.03;;;4.15;96.52
73016;BME280;61893;50.074;14.440;2024-03-07T02:57:26;98922.34;;;4.04;96.38
73016;BME280;61893;50.074;14.440;2024-03-07T02:59:54;98921.31;;;4.07;96.74
73016;BME280;61893;50.074;14.440;2024-03-07T03:02:20;98919.59;;;4.06;96.56
73016;BME280;61893;50.074;14.440;2024-03-07T03:04:49;98921.09;;;4.10;96.18
73016;BME280;61893;50.074;14.440;2024-03-07T03:07:15;98917.84;;;4.19;96.12
73016;BME280;61893;50.074;14.440;2024-03-07T03:10:10;98926.25;;;4.12;96.37
73016;BME280;61893;50.074;14.440;2024-03-07T03:12:47;98919.38;;;4.09;96.71
73016;BME280;61893;50.074;14.440;2024-03-07T03:15:15;98925.31;;;4.25;96.18
73016;BME280;61893;50.074;14.440;2024-03-07T03:17:43;98925.75;;;4.19;95.74
73016;BME280;61893;50.074;14.440;2024-03-07T03:20:14;98921.22;;;4.21;96.41
73016;BME280;61893;50.074;14.440;2024-03-07T03:23:07;98920.59;;;4.18;96.75
73016;BME280;61893;50.074;14.440;2024-03-07T03:25:56;98925.84;;;4.18;96.90
73016;BME280;61893;50.074;14.440;2024-03-07T03:28:25;98921.72;;;4.14;96.32
73016;BME280;61893;50.074;14.440;2024-03-07T03:31:02;98924.34;;;4.14;97.39
73016;BME280;61893;50.074;14.440;2024-03-07T03:33:32;98917.97;;;4.18;96.05
73016;BME280;61893;50.074;14.440;2024-03-07T03:35:58;98920.78;;;4.15;96.44
73016;BME280;61893;50.074;14.440;2024-03-07T03:38:30;98919.31;;;4.11;97.07
73016;BME280;61893;50.074;14.440;2024-03-07T03:40:56;98916.25;;;4.17;97.31
73016;BME280;61893;50.074;14.440;2024-03-07T03:43:22;98923.75;;;4.23;96.52
73016;BME280;61893;50.074;14.440;2024-03-07T03:45:50;98922.16;;;4.20;97.07
73016;BME280;61893;50.074;14.440;2024-03-07T03:48:16;98916.78;;;4.22;96.71
73016;BME280;61893;50.074;14.440;2024-03-07T03:50:42;98919.94;;;4.14;97.31
73016;BME280;61893;50.074;14.440;2024-03-07T03:53:11;98920.69;;;4.16;97.17
73016;BME280;61893;50.074;14.440;2024-03-07T03:55:37;98920.69;;;4.16;97.33
73016;BME280;61893;50.074;14.440;2024-03-07T03:58:03;98915.75;;;4.24;96.54
73016;BME280;61893;50.074;14.440;2024-03-07T04:00:39;98917.97;;;4.18;96.37
73016;BME280;61893;50.074;14.440;2024-03-07T04:03:10;98912.06;;;4.27;96.34
73016;BME280;61893;50.074;14.440;2024-03-07T04:05:37;98918.59;;;4.21;96.32
73016;BME280;61893;50.074;14.440;2024-03-07T04:08:03;98916.69;;;4.23;96.52
73016;BME280;61893;50.074;14.440;2024-03-07T04:10:47;98912.69;;;4.31;95.83
73016;BME280;61893;50.074;14.440;2024-03-07T04:13:20;98910.81;;;4.33;95.80
73016;BME280;61893;50.074;14.440;2024-03-07T04:16:16;98913.44;;;4.33;96.01
73016;BME280;61893;50.074;14.440;2024-03-07T04:19:17;98911.09;;;4.28;95.92
73016;BME280;61893;50.074;14.440;2024-03-07T04:21:48;98913.13;;;4.37;95.51
73016;BME280;61893;50.074;14.440;2024-03-07T04:24:14;98911.03;;;4.29;95.84
73016;BME280;61893;50.074;14.440;2024-03-07T04:26:46;98910.16;;;4.29;95.61
73016;BME280;61893;50.074;14.440;2024-03-07T04:29:16;98910.97;;;4.17;96.37
73016;BME280;61893;50.074;14.440;2024-03-07T04:31:42;98913.94;;;4.25;96.79
73016;BME280;61893;50.074;14.440;2024-03-07T04:34:13;98907.50;;;4.29;95.81
73016;BME280;61893;50.074;14.440;2024-03-07T04:36:45;98907.84;;;4.37;95.66
73016;BME280;61893;50.074;14.440;2024-03-07T04:39:11;98903.00;;;4.31;95.46
73016;BME280;61893;50.074;14.440;2024-03-07T04:41:55;98914.91;;;4.24;95.26
73016;BME280;61893;50.074;14.440;2024-03-07T04:44:40;98908.47;;;4.28;95.05
73016;BME280;61893;50.074;14.440;2024-03-07T04:47:24;98914.78;;;4.25;95.83
73016;BME280;61893;50.074;14.440;2024-03-07T04:49:53;98913.31;;;4.21;95.04
73016;BME280;61893;50.074;14.440;2024-03-07T04:52:27;98913.75;;;4.15;94.35
73016;BME280;61893;50.074;14.440;2024-03-07T04:54:56;98919.31;;;4.23;94.43
73016;BME280;61893;50.074;14.440;2024-03-07T04:57:22;98915.41;;;4.29;93.06
73016;BME280;61893;50.074;14.440;2024-03-07T04:59:48;98917.97;;;4.18;91.99
73016;BME280;61893;50.074;14.440;2024-03-07T05:02:33;98926.91;;;4.15;90.80
73016;BME280;61893;50.074;14.440;2024-03-07T05:05:02;98924.28;;;4.15;86.29
73016;BME280;61893;50.074;14.440;2024-03-07T05:07:33;98920.66;;;4.03;86.75
73016;BME280;61893;50.074;14.440;2024-03-07T05:10:02;98928.84;;;3.99;84.66
73016;BME280;61893;50.074;14.440;2024-03-07T05:12:44;98930.94;;;3.94;83.63
73016;BME280;61893;50.074;14.440;2024-03-07T05:15:10;98936.22;;;3.94;82.27
73016;BME280;61893;50.074;14.440;2024-03-07T05:17:36;98941.47;;;3.94;80.68
73016;BME280;61893;50.074;14.440;2024-03-07T05:20:15;98943.97;;;3.82;78.59
73016;BME280;61893;50.074;14.440;2024-03-07T05:23:30;98948.94;;;3.87;78.24
73016;BME280;61893;50.074;14.440;2024-03-07T05:26:14;98946.41;;;3.86;77.34
73016;BME280;61893;50.074;14.440;2024-03-07T05:31:26;98947.56;;;3.94;75.84
73016;BME280;61893;50.074;14.440;2024-03-07T05:33:58;98952.22;;;3.91;76.51
73016;BME280;61893;50.074;14.440;2024-03-07T05:36:24;98945.91;;;3.93;75.99
73016;BME280;61893;50.074;14.440;2024-03-07T05:38:50;98946.91;;;3.78;75.26
73016;BME280;61893;50.074;14.440;2024-03-07T05:41:19;98950.47;;;3.77;75.71
73016;BME280;61893;50.074;14.440;2024-03-07T05:44:02;98952.13;;;3.92;75.55
73016;BME280;61893;50.074;14.440;2024-03-07T05:46:31;98946.75;;;3.94;73.88
73016;BME280;61893;50.074;14.440;2024-03-07T05:49:02;98955.03;;;3.88;72.48
73016;BME280;61893;50.074;14.440;2024-03-07T05:51:51;98967.00;;;3.79;72.20
73016;BME280;61893;50.074;14.440;2024-03-07T05:54:49;98966.91;;;3.80;71.82
73016;BME280;61893;50.074;14.440;2024-03-07T05:57:30;98965.03;;;3.82;71.85
73016;BME280;61893;50.074;14.440;2024-03-07T06:00:05;98971.09;;;3.70;71.40
73016;BME280;61893;50.074;14.440;2024-03-07T06:02:39;98970.63;;;3.64;71.15
73016;BME280;61893;50.074;14.440;2024-03-07T06:05:05;98971.47;;;3.64;71.56
73016;BME280;61893;50.074;14.440;2024-03-07T06:07:38;98971.38;;;3.66;70.69
73016;BME280;61893;50.074;14.440;2024-03-07T06:10:09;98974.75;;;3.68;71.06
73016;BME280;61893;50.074;14.440;2024-03-07T06:12:49;98977.59;;;3.65;71.31
73016;BME280;61893;50.074;14.440;2024-03-07T06:15:36;98976.94;;;3.61;71.33
73016;BME280;61893;50.074;14.440;2024-03-07T06:18:04;98979.63;;;3.74;71.06
73016;BME280;61893;50.074;14.440;2024-03-07T06:20:34;98977.44;;;3.80;70.45
73016;BME280;61893;50.074;14.440;2024-03-07T06:23:09;98980.66;;;3.71;71.18
73016;BME280;61893;50.074;14.440;2024-03-07T06:26:01;98977.53;;;3.79;69.91
73016;BME280;61893;50.074;14.440;2024-03-07T06:29:03;98984.84;;;3.88;70.68
73016;BME280;61893;50.074;14.440;2024-03-07T06:31:44;98983.03;;;3.89;68.82
73016;BME280;61893;50.074;14.440;2024-03-07T06:34:39;98986.50;;;3.89;70.43
73016;BME280;61893;50.074;14.440;2024-03-07T06:37:56;98979.53;;;4.02;72.49
73016;BME280;61893;50.074;14.440;2024-03-07T06:40:42;98976.94;;;4.15;74.86
73016;BME280;61893;50.074;14.440;2024-03-07T06:43:20;98972.75;;;4.25;75.08
73016;BME280;61893;50.074;14.440;2024-03-07T06:47:00;98970.94;;;4.26;74.55
73016;BME280;61893;50.074;14.440;2024-03-07T06:50:10;98978.34;;;4.21;75.34
73016;BME280;61893;50.074;14.440;2024-03-07T06:53:15;98976.56;;;4.34;74.38
73016;BME280;61893;50.074;14.440;2024-03-07T06:56:20;98986.75;;;4.26;73.98
73016;BME280;61893;50.074;14.440;2024-03-07T06:59:52;98986.44;;;4.18;72.82
73016;BME280;61893;50.074;14.440;2024-03-07T07:03:23;98990.00;;;4.17;72.68
73016;BME280;61893;50.074;14.440;2024-03-07T07:05:54;98993.31;;;4.33;74.51
73016;BME280;61893;50.074;14.440;2024-03-07T07:08:54;98996.44;;;4.25;71.50
73016;BME280;61893;50.074;14.440;2024-03-07T07:11:39;99004.81;;;4.32;70.26
73016;BME280;61893;50.074;14.440;2024-03-07T07:14:22;99007.72;;;4.00;68.70
73016;BME280;61893;50.074;14.440;2024-03-07T07:22:37;99014.91;;;3.98;68.74
73016;BME280;61893;50.074;14.440;2024-03-07T07:26:03;99003.69;;;3.68;68.40
73016;BME280;61893;50.074;14.440;2024-03-07T07:31:54;99011.72;;;3.93;67.89
73016;BME280;61893;50.074;14.440;2024-03-07T07:34:52;99000.44;;;3.91;68.50
73016;BME280;61893;50.074;14.440;2024-03-07T07:37:29;99010.03;;;3.92;67.64
73016;BME280;61893;50.074;14.440;2024-03-07T08:07:47;98998.09;;;5.17;62.54
73016;BME280;61893;50.074;14.440;2024-03-07T08:10:15;99003.56;;;5.40;60.92
73016;BME280;61893;50.074;14.440;2024-03-07T08:12:42;99004.81;;;5.60;60.44
73016;BME280;61893;50.074;14.440;2024-03-07T08:35:35;99005.88;;;5.94;57.06
73016;BME280;61893;50.074;14.440;2024-03-07T08:52:54;99002.41;;;6.42;54.96
73016;BME280;61893;50.074;14.440;2024-03-07T09:16:20;98991.22;;;6.14;53.75
73016;BME280;61893;50.074;14.440;2024-03-07T09:43:16;98993.28;;;5.98;55.88
73016;BME280;61893;50.074;14.440;2024-03-07T09:48:45;98992.81;;;5.80;56.37
73016;BME280;61893;50.074;14.440;2024-03-07T09:51:56;98986.69;;;6.16;56.04
73016;BME280;61893;50.074;14.440;2024-03-07T09:55:24;98986.69;;;6.16;57.20
73016;BME280;61893;50.074;14.440;2024-03-07T09:58:41;98996.00;;;6.09;56.74
73016;BME280;61893;50.074;14.440;2024-03-07T10:01:39;98984.81;;;5.69;59.79
73016;BME280;61893;50.074;14.440;2024-03-07T10:59:28;98989.72;;;6.58;53.61
73016;BME280;61893;50.074;14.440;2024-03-07T11:16:33;98992.38;;;6.58;53.62
73016;BME280;61893;50.074;14.440;2024-03-07T11:19:40;98982.50;;;6.25;52.99
73016;BME280;61893;50.074;14.440;2024-03-07T11:22:41;98980.16;;;6.09;53.88
73016;BME280;61893;50.074;14.440;2024-03-07T11:25:45;98979.69;;;6.15;53.65
73016;BME280;61893;50.074;14.440;2024-03-07T11:28:36;98978.38;;;6.09;53.18
73016;BME280;61893;50.074;14.440;2024-03-07T11:31:47;98978.09;;;6.01;53.99
73016;BME280;61893;50.074;14.440;2024-03-07T11:34:41;98971.75;;;6.04;54.13
73016;BME280;61893;50.074;14.440;2024-03-07T11:38:18;98969.56;;;6.09;55.31
73016;BME280;61893;50.074;14.440;2024-03-07T11:41:24;98967.16;;;6.06;56.54
73016;BME280;61893;50.074;14.440;2024-03-07T11:44:01;98967.63;;;6.00;55.42
73016;BME280;61893;50.074;14.440;2024-03-07T11:47:15;98961.41;;;6.12;55.32
73016;BME280;61893;50.074;14.440;2024-03-07T11:50:13;98961.47;;;6.23;55.27
73016;BME280;61893;50.074;14.440;2024-03-07T11:53:01;98957.06;;;6.00;55.52
73016;BME280;61893;50.074;14.440;2024-03-07T11:56:10;98956.50;;;6.07;55.19
73016;BME280;61893;50.074;14.440;2024-03-07T12:02:28;98960.91;;;5.83;57.25
73016;BME280;61893;50.074;14.440;2024-03-07T12:20:12;98960.16;;;5.57;58.77
73016;BME280;61893;50.074;14.440;2024-03-07T12:23:01;98954.28;;;5.40;58.92
73016;BME280;61893;50.074;14.440;2024-03-07T12:25:33;98954.63;;;5.36;59.35
